createdAt,value
2022-10-12T00:01:35.077Z,3.10
2022-10-12T00:07:37.618Z,3.20
2022-10-12T00:13:40.221Z,2.75
2022-10-12T00:19:42.271Z,2.95
2022-10-12T00:25:44.217Z,3.17
2022-10-12T00:31:46.158Z,3.55
2022-10-12T00:45:46.531Z,3.72
2022-10-12T00:58:50.958Z,3.13
2022-10-12T01:06:03.309Z,3.35
2022-10-12T01:12:35.410Z,3.40
2022-10-12T01:20:05.093Z,3.80
2022-10-12T01:33:04.943Z,3.80
2022-10-12T01:53:26.879Z,3.25
2022-10-12T02:00:15.915Z,2.60
2022-10-12T02:06:43.560Z,2.92
2022-10-12T02:13:02.628Z,3.22
2022-10-12T02:19:17.398Z,3.67
2022-10-12T02:25:24.567Z,3.28
2022-10-12T02:31:42.538Z,3.30
2022-10-12T02:38:06.104Z,3.60
2022-10-12T02:44:41.066Z,3.28
2022-10-12T02:50:51.251Z,4.15
2022-10-12T02:57:11.213Z,4.80
2022-10-12T03:03:21.143Z,5.25
2022-10-12T03:09:35.745Z,5.32
2022-10-12T03:16:09.420Z,5.72
2022-10-12T03:22:32.796Z,6.18
2022-10-12T03:29:03.159Z,6.60
2022-10-12T03:41:56.994Z,4.55
2022-10-12T03:48:04.480Z,4.65
2022-10-12T03:54:21.569Z,5.32
2022-10-12T04:07:04.436Z,5.63
2022-10-12T04:20:51.713Z,4.93
2022-10-12T04:27:03.542Z,4.80
2022-10-12T04:33:09.950Z,5.43
2022-10-12T04:40:14.646Z,4.65
2022-10-12T04:46:13.043Z,4.57
2022-10-12T04:59:07.665Z,6.32
2022-10-12T05:05:09.952Z,6.93
2022-10-12T05:11:11.946Z,6.85
2022-10-12T05:17:13.869Z,5.20
2022-10-12T05:23:15.952Z,4.82
2022-10-12T05:29:17.984Z,4.20
2022-10-12T05:35:20.028Z,4.65
2022-10-12T05:41:21.860Z,5.45
2022-10-12T05:47:23.751Z,5.90
2022-10-12T05:53:25.707Z,5.65
2022-10-12T05:59:28.101Z,4.93
2022-10-12T06:05:30.171Z,6.15
2022-10-12T06:11:35.502Z,5.25
2022-10-12T06:17:38.665Z,5.25
2022-10-12T06:23:43.005Z,6.05
2022-10-12T06:29:45.288Z,5.22
2022-10-12T06:35:47.229Z,5.38
2022-10-12T06:41:49.153Z,5.55
2022-10-12T06:47:54.407Z,5.63
2022-10-12T06:53:56.960Z,5.38
2022-10-12T06:59:59.216Z,4.75
2022-10-12T07:06:12.835Z,4.38
2022-10-12T07:12:14.872Z,4.85
2022-10-12T07:18:16.956Z,4.53
2022-10-12T07:24:19.253Z,5.00
2022-10-12T07:30:21.237Z,4.70
2022-10-12T07:36:41.015Z,3.97
2022-10-12T07:43:14.369Z,4.70
2022-10-12T07:49:11.296Z,5.18
2022-10-12T07:55:13.129Z,4.72
2022-10-12T08:01:15.086Z,4.78
2022-10-12T08:07:17.098Z,5.30
2022-10-12T08:13:19.049Z,5.80
2022-10-12T08:19:21.088Z,5.90
2022-10-12T08:25:23.015Z,7.07
2022-10-12T08:31:25.108Z,8.90
2022-10-12T08:37:27.058Z,7.20
2022-10-12T08:43:53.854Z,6.65
2022-10-12T08:49:55.940Z,6.30
2022-10-12T08:55:59.149Z,5.65
2022-10-12T09:02:49.489Z,5.63
2022-10-12T09:08:51.513Z,6.47
2022-10-12T09:15:00.446Z,6.72
2022-10-12T09:21:06.531Z,6.32
2022-10-12T09:27:17.947Z,5.00
2022-10-12T09:33:34.534Z,3.85
2022-10-12T09:39:39.664Z,2.72
2022-10-12T09:45:42.551Z,3.22
2022-10-12T09:51:45.825Z,2.67
2022-10-12T09:57:55.895Z,2.80
2022-10-12T10:04:12.180Z,2.50
2022-10-12T10:10:17.641Z,2.60
2022-10-12T10:16:24.377Z,2.78
2022-10-12T10:22:27.057Z,2.75
2022-10-12T10:28:34.524Z,2.50
2022-10-12T10:34:36.468Z,2.63
2022-10-12T10:40:39.089Z,2.33
2022-10-12T10:46:41.109Z,2.88
2022-10-12T10:52:43.876Z,2.35
2022-10-12T10:58:57.638Z,2.75
2022-10-12T11:05:22.228Z,2.78
2022-10-12T11:11:28.436Z,2.60
2022-10-12T11:17:34.008Z,2.30
2022-10-12T11:24:16.319Z,2.90
2022-10-12T11:30:44.513Z,2.80
2022-10-12T11:37:18.329Z,2.80
2022-10-12T11:43:31.741Z,2.72
2022-10-12T11:50:25.949Z,2.97
2022-10-12T11:56:35.319Z,3.00
2022-10-12T12:02:48.666Z,3.30
2022-10-12T12:08:53.507Z,2.75
2022-10-12T12:14:55.330Z,3.15
2022-10-12T12:21:09.573Z,3.53
2022-10-12T12:27:36.648Z,3.38
2022-10-12T12:33:42.293Z,2.67
2022-10-12T12:39:44.829Z,3.53
2022-10-12T12:46:14.233Z,3.10
2022-10-12T12:52:22.484Z,3.20
2022-10-12T12:58:47.184Z,3.17
2022-10-12T13:05:07.653Z,3.22
2022-10-12T13:11:28.253Z,2.60
2022-10-12T13:18:18.525Z,2.83
2022-10-12T13:24:56.767Z,3.05
2022-10-12T13:31:07.660Z,3.05
2022-10-12T13:37:12.913Z,2.67
2022-10-12T13:43:37.218Z,3.15
2022-10-12T13:49:43.706Z,2.40
2022-10-12T13:56:03.969Z,2.58
2022-10-12T14:02:26.367Z,2.55
2022-10-12T14:08:29.433Z,2.83
2022-10-12T14:14:34.855Z,2.38
2022-10-12T14:20:39.146Z,2.40
2022-10-12T14:26:43.530Z,2.40
2022-10-12T14:32:49.135Z,2.40
2022-10-12T14:38:52.488Z,2.80
2022-10-12T14:44:54.365Z,2.00
2022-10-12T14:50:56.501Z,2.40
2022-10-12T14:57:12.917Z,2.28
2022-10-12T15:03:17.927Z,2.63
2022-10-12T15:09:19.858Z,2.33
2022-10-12T15:15:29.203Z,2.63
2022-10-12T15:21:31.153Z,3.03
2022-10-12T15:27:33.012Z,2.42
2022-10-12T15:33:34.960Z,2.47
2022-10-12T15:39:36.990Z,2.60
2022-10-12T15:45:40.521Z,2.22
2022-10-12T15:51:47.843Z,2.30
2022-10-12T15:57:50.271Z,2.70
2022-10-12T16:03:52.524Z,2.28
2022-10-12T16:09:54.374Z,2.17
2022-10-12T16:15:56.227Z,2.53
2022-10-12T16:21:58.133Z,2.42
2022-10-12T16:28:00.038Z,2.50
2022-10-12T16:34:01.874Z,2.75
2022-10-12T16:40:07.011Z,2.67
2022-10-12T16:46:09.892Z,2.80
2022-10-12T16:52:12.290Z,2.80
2022-10-12T16:58:15.074Z,3.10
2022-10-12T17:04:17.435Z,3.22
2022-10-12T17:10:19.701Z,3.50
2022-10-12T17:16:40.781Z,3.40
2022-10-12T17:22:42.628Z,3.22
2022-10-12T17:28:44.865Z,3.55
2022-10-12T17:34:46.753Z,4.13
2022-10-12T17:40:50.253Z,4.03
2022-10-12T17:46:52.363Z,3.80
2022-10-12T17:52:57.240Z,3.90
2022-10-12T17:59:01.578Z,4.00
2022-10-12T18:05:03.705Z,4.65
2022-10-12T18:11:07.382Z,4.40
2022-10-12T18:17:24.009Z,4.60
2022-10-12T18:31:02.487Z,4.47
2022-10-12T18:58:47.579Z,5.75
2022-10-12T19:05:17.807Z,5.80
2022-10-12T19:11:47.764Z,5.97
2022-10-12T19:26:03.257Z,5.85
2022-10-12T19:41:01.431Z,6.15
2022-10-12T19:47:02.305Z,6.15
2022-10-12T19:54:02.528Z,6.97
2022-10-12T20:01:02.402Z,7.63
2022-10-12T20:07:15.394Z,6.90
2022-10-12T20:14:43.911Z,7.03
2022-10-12T20:21:29.058Z,6.38
2022-10-12T20:28:55.042Z,6.82
2022-10-12T20:42:49.688Z,7.55
2022-10-12T20:50:00.507Z,6.50
2022-10-12T20:56:15.692Z,6.60
2022-10-12T21:10:01.207Z,8.05
2022-10-12T21:16:08.476Z,7.90
2022-10-12T21:22:51.626Z,8.33
2022-10-12T21:29:28.698Z,8.32
2022-10-12T21:36:19.720Z,8.50
2022-10-12T21:42:21.909Z,8.20
2022-10-12T21:48:23.751Z,7.95
2022-10-12T21:54:25.606Z,9.48
2022-10-12T22:00:27.556Z,9.70
2022-10-12T22:06:30.129Z,8.90
2022-10-12T22:12:35.309Z,8.90
2022-10-12T22:18:37.439Z,8.65
2022-10-12T22:24:39.376Z,8.43
2022-10-12T22:30:41.469Z,8.80
2022-10-12T22:36:44.199Z,8.77
2022-10-12T22:42:46.132Z,9.13
2022-10-12T22:48:48.471Z,9.95
2022-10-12T22:54:50.309Z,9.45
2022-10-12T23:00:52.741Z,8.60
2022-10-12T23:06:54.656Z,8.80
2022-10-12T23:12:56.601Z,8.60
2022-10-12T23:19:01.181Z,8.65
2022-10-12T23:25:03.097Z,8.30
2022-10-12T23:31:06.837Z,9.40
2022-10-12T23:37:09.031Z,8.70
2022-10-12T23:43:10.880Z,9.45
2022-10-12T23:49:12.748Z,9.07
2022-10-12T23:55:14.740Z,9.05
